createdAt,value
2023-03-17T00:01:10.307Z,5.80
2023-03-17T00:03:44.847Z,6.00
2023-03-17T00:06:29.059Z,7.20
2023-03-17T00:09:02.522Z,8.00
2023-03-17T00:11:35.721Z,9.00
2023-03-17T00:14:08.854Z,9.10
2023-03-17T00:16:49.041Z,8.10
2023-03-17T00:19:35.535Z,7.30
2023-03-17T00:22:17.562Z,12.90
2023-03-17T00:24:50.590Z,6.70
2023-03-17T00:27:23.642Z,5.30
2023-03-17T00:29:57.866Z,5.00
2023-03-17T00:32:30.892Z,8.90
2023-03-17T00:35:06.544Z,9.00
2023-03-17T00:37:40.164Z,7.10
2023-03-17T00:40:19.556Z,7.60
2023-03-17T00:42:53.505Z,7.70
2023-03-17T00:45:28.560Z,9.10
2023-03-17T00:48:03.799Z,7.50
2023-03-17T00:50:37.356Z,6.00
2023-03-17T00:53:17.204Z,5.70
2023-03-17T00:55:51.099Z,9.10
2023-03-17T00:58:35.930Z,7.70
2023-03-17T01:01:09.050Z,8.40
2023-03-17T01:03:42.508Z,5.50
2023-03-17T01:06:17.068Z,6.80
2023-03-17T01:08:51.045Z,7.10
2023-03-17T01:11:24.428Z,8.70
2023-03-17T01:13:57.871Z,8.30
2023-03-17T01:16:31.228Z,8.10
2023-03-17T01:19:05.143Z,6.30
2023-03-17T01:21:38.263Z,5.90
2023-03-17T01:24:11.672Z,11.20
2023-03-17T01:26:46.215Z,3.80
2023-03-17T01:29:19.861Z,7.50
2023-03-17T01:31:53.512Z,7.30
2023-03-17T01:34:26.809Z,6.50
2023-03-17T01:37:00.579Z,10.30
2023-03-17T01:39:33.970Z,6.70
2023-03-17T01:42:07.731Z,6.80
2023-03-17T01:45:01.116Z,6.00
2023-03-17T01:47:33.717Z,6.70
2023-03-17T01:50:12.872Z,10.40
2023-03-17T01:52:45.475Z,7.20
2023-03-17T01:55:21.985Z,6.10
2023-03-17T01:57:56.957Z,7.40
2023-03-17T02:00:31.363Z,10.20
2023-03-17T02:03:06.647Z,7.50
2023-03-17T02:05:40.742Z,4.50
2023-03-17T02:08:18.077Z,7.00
2023-03-17T02:10:53.048Z,7.30
2023-03-17T02:13:27.573Z,6.70
2023-03-17T02:16:01.260Z,6.10
2023-03-17T02:18:34.516Z,4.40
2023-03-17T02:21:36.765Z,6.20
2023-03-17T02:24:21.773Z,4.70
2023-03-17T02:26:57.700Z,5.40
2023-03-17T02:29:31.182Z,8.30
2023-03-17T02:32:04.931Z,4.70
2023-03-17T02:34:38.294Z,6.00
2023-03-17T02:37:11.584Z,4.20
2023-03-17T02:39:45.061Z,4.00
2023-03-17T02:42:18.354Z,6.10
2023-03-17T02:44:51.557Z,4.90
2023-03-17T02:47:25.216Z,5.90
2023-03-17T02:49:58.677Z,5.40
2023-03-17T02:52:31.721Z,5.30
2023-03-17T02:55:04.943Z,6.60
2023-03-17T02:57:38.283Z,5.00
2023-03-17T03:00:13.760Z,5.80
2023-03-17T03:02:46.649Z,4.70
2023-03-17T03:05:20.267Z,6.30
2023-03-17T03:07:53.322Z,6.90
2023-03-17T03:10:26.335Z,4.90
2023-03-17T03:12:59.798Z,6.30
2023-03-17T03:15:33.579Z,4.70
2023-03-17T03:18:07.423Z,3.60
2023-03-17T03:20:40.586Z,5.30
2023-03-17T03:23:14.501Z,8.10
2023-03-17T03:25:48.335Z,7.50
2023-03-17T03:28:21.392Z,5.80
2023-03-17T03:30:55.042Z,7.80
2023-03-17T03:33:29.073Z,8.70
2023-03-17T03:36:03.053Z,5.20
2023-03-17T03:38:37.107Z,8.60
2023-03-17T03:41:10.709Z,4.80
2023-03-17T03:43:43.570Z,4.90
2023-03-17T03:46:17.088Z,4.50
2023-03-17T03:48:50.204Z,8.30
2023-03-17T03:51:23.145Z,6.80
2023-03-17T03:53:56.394Z,8.40
2023-03-17T03:56:29.393Z,6.70
2023-03-17T03:59:02.411Z,11.00
2023-03-17T04:01:35.441Z,6.00
2023-03-17T04:04:09.037Z,10.30
2023-03-17T04:06:42.278Z,5.10
2023-03-17T04:09:16.530Z,10.20
2023-03-17T04:11:49.781Z,11.10
2023-03-17T04:14:22.978Z,8.60
2023-03-17T04:16:56.213Z,7.30
2023-03-17T04:19:29.520Z,8.90
2023-03-17T04:22:02.620Z,6.10
2023-03-17T04:24:36.015Z,14.30
2023-03-17T04:27:09.813Z,8.70
2023-03-17T04:29:43.484Z,11.00
2023-03-17T04:32:17.032Z,11.80
2023-03-17T04:34:50.036Z,5.00
2023-03-17T04:37:24.065Z,7.70
2023-03-17T04:39:57.701Z,8.90
2023-03-17T04:42:31.010Z,9.70
2023-03-17T04:45:04.662Z,8.10
2023-03-17T04:47:38.293Z,10.30
2023-03-17T04:50:12.477Z,11.10
2023-03-17T04:52:45.349Z,9.80
2023-03-17T04:55:18.759Z,7.30
2023-03-17T04:57:51.590Z,6.60
2023-03-17T05:00:25.017Z,8.60
2023-03-17T05:02:58.664Z,7.80
2023-03-17T05:05:31.727Z,7.10
2023-03-17T05:08:05.340Z,6.50
2023-03-17T05:10:41.113Z,9.00
2023-03-17T05:13:15.050Z,12.70
2023-03-17T05:15:52.233Z,9.20
2023-03-17T05:18:27.263Z,10.60
2023-03-17T05:21:01.413Z,11.40
2023-03-17T05:23:34.913Z,11.20
2023-03-17T05:26:08.255Z,14.40
2023-03-17T05:28:41.562Z,14.20
2023-03-17T05:31:14.875Z,12.20
2023-03-17T05:33:49.473Z,12.20
2023-03-17T05:36:23.233Z,12.40
2023-03-17T05:38:56.822Z,13.20
2023-03-17T05:41:29.739Z,14.10
2023-03-17T05:44:02.744Z,12.20
2023-03-17T05:46:36.871Z,11.40
2023-03-17T05:49:11.015Z,14.20
2023-03-17T05:51:44.698Z,15.00
2023-03-17T05:54:18.128Z,12.50
2023-03-17T05:56:52.784Z,11.00
2023-03-17T05:59:26.491Z,11.00
2023-03-17T06:02:00.433Z,9.50
2023-03-17T06:04:34.802Z,9.20
2023-03-17T06:07:09.948Z,12.30
2023-03-17T06:09:44.063Z,11.40
2023-03-17T06:12:17.715Z,11.30
2023-03-17T06:14:51.123Z,11.70
2023-03-17T06:17:27.253Z,9.20
2023-03-17T06:20:01.858Z,10.50
2023-03-17T06:22:39.757Z,15.10
2023-03-17T06:25:19.602Z,8.90
2023-03-17T06:27:56.293Z,10.00
2023-03-17T06:30:32.152Z,10.50
2023-03-17T06:33:07.457Z,13.30
2023-03-17T06:35:40.976Z,13.40
2023-03-17T06:38:14.297Z,15.60
2023-03-17T06:40:48.542Z,9.30
2023-03-17T06:43:25.867Z,11.40
2023-03-17T06:46:02.052Z,15.70
2023-03-17T06:48:41.987Z,17.10
2023-03-17T06:51:16.463Z,10.70
2023-03-17T06:53:50.726Z,12.30
2023-03-17T06:56:30.330Z,15.00
2023-03-17T06:59:05.740Z,11.40
2023-03-17T07:01:39.820Z,20.90
2023-03-17T07:04:13.993Z,20.30
2023-03-17T07:06:50.946Z,15.50
2023-03-17T07:09:25.082Z,14.30
2023-03-17T07:11:58.720Z,16.20
2023-03-17T07:14:33.382Z,13.40
2023-03-17T07:17:08.686Z,12.90
2023-03-17T07:19:43.160Z,12.90
2023-03-17T07:22:17.755Z,11.70
2023-03-17T07:24:55.643Z,11.00
2023-03-17T07:27:30.715Z,11.50
2023-03-17T07:30:05.475Z,14.40
2023-03-17T07:32:40.164Z,14.30
2023-03-17T07:35:15.199Z,12.70
2023-03-17T07:37:48.473Z,14.00
2023-03-17T07:40:22.582Z,8.20
2023-03-17T07:42:57.072Z,12.50
2023-03-17T07:45:31.182Z,9.50
2023-03-17T07:48:05.684Z,11.80
2023-03-17T07:50:39.723Z,13.50
2023-03-17T07:53:14.176Z,9.90
2023-03-17T07:55:48.201Z,12.80
2023-03-17T07:58:22.273Z,8.40
2023-03-17T08:00:58.622Z,11.20
2023-03-17T08:03:32.330Z,9.50
2023-03-17T08:06:08.117Z,10.50
2023-03-17T08:08:42.705Z,7.60
2023-03-17T08:11:18.000Z,8.90
2023-03-17T08:13:52.267Z,8.80
2023-03-17T08:16:30.728Z,11.40
2023-03-17T08:19:05.415Z,11.00
2023-03-17T08:21:40.110Z,10.20
2023-03-17T08:24:13.683Z,8.60
2023-03-17T08:26:50.250Z,10.90
2023-03-17T08:29:36.430Z,9.20
2023-03-17T08:32:15.921Z,10.00
2023-03-17T08:34:54.684Z,10.70
2023-03-17T08:37:29.211Z,7.80
2023-03-17T08:40:06.518Z,10.50
2023-03-17T08:42:41.670Z,9.80
2023-03-17T08:45:24.441Z,10.10
2023-03-17T08:47:59.174Z,8.50
2023-03-17T08:50:36.601Z,8.10
2023-03-17T08:53:10.591Z,10.50
2023-03-17T08:55:44.513Z,9.10
2023-03-17T08:58:18.214Z,9.60
2023-03-17T09:00:53.246Z,7.60
2023-03-17T09:03:28.554Z,9.50
2023-03-17T09:06:06.018Z,10.10
2023-03-17T09:08:40.730Z,8.90
2023-03-17T09:11:17.879Z,7.50
2023-03-17T09:13:52.183Z,8.00
2023-03-17T09:16:27.407Z,7.70
2023-03-17T09:19:00.724Z,5.70
2023-03-17T09:21:34.292Z,8.30
2023-03-17T09:24:07.918Z,7.60
2023-03-17T09:26:43.352Z,7.50
2023-03-17T09:29:18.029Z,6.50
2023-03-17T09:31:51.534Z,9.60
2023-03-17T09:34:25.865Z,8.80
2023-03-17T09:37:02.077Z,9.00
2023-03-17T09:39:35.557Z,8.60
2023-03-17T09:42:50.653Z,7.20
2023-03-17T09:45:27.319Z,7.70
2023-03-17T09:48:18.655Z,5.90
2023-03-17T09:51:05.800Z,4.90
2023-03-17T09:53:49.394Z,5.30
2023-03-17T09:56:24.553Z,5.90
2023-03-17T09:59:28.232Z,5.90
2023-03-17T10:02:03.139Z,7.60
2023-03-17T10:04:40.001Z,6.00
2023-03-17T10:07:19.166Z,9.80
2023-03-17T10:10:06.743Z,6.80
2023-03-17T10:13:02.499Z,7.60
2023-03-17T10:15:51.137Z,9.40
2023-03-17T10:18:32.993Z,5.00
2023-03-17T10:21:20.547Z,6.80
2023-03-17T10:23:57.461Z,10.30
2023-03-17T10:26:45.347Z,6.70
2023-03-17T10:29:25.110Z,7.40
2023-03-17T10:31:59.021Z,8.90
2023-03-17T10:34:38.030Z,8.80
2023-03-17T10:37:23.775Z,9.00
2023-03-17T10:40:00.658Z,6.60
2023-03-17T10:42:39.970Z,7.40
2023-03-17T10:45:44.912Z,10.90
2023-03-17T10:48:21.413Z,8.20
2023-03-17T10:50:56.796Z,5.90
2023-03-17T10:53:46.407Z,7.30
2023-03-17T10:56:28.820Z,8.30
2023-03-17T10:59:21.442Z,7.10
2023-03-17T11:01:59.667Z,10.00
2023-03-17T11:04:37.199Z,7.80
2023-03-17T11:07:23.941Z,5.90
2023-03-17T11:10:03.873Z,8.30
2023-03-17T11:12:44.557Z,6.60
2023-03-17T11:15:20.951Z,11.40
2023-03-17T11:21:18.222Z,5.40
2023-03-17T11:24:05.209Z,7.80
2023-03-17T11:26:58.632Z,7.20
2023-03-17T11:29:51.728Z,8.90
2023-03-17T11:33:13.944Z,7.50
2023-03-17T11:36:04.593Z,4.90
2023-03-17T11:39:06.529Z,8.90
2023-03-17T11:42:13.007Z,11.00
2023-03-17T11:45:05.626Z,7.80
2023-03-17T11:48:09.320Z,6.80
2023-03-17T11:50:56.224Z,3.70
2023-03-17T11:53:51.364Z,5.70
2023-03-17T11:56:55.600Z,5.60
2023-03-17T11:59:33.142Z,6.30
2023-03-17T12:02:18.554Z,6.40
2023-03-17T12:05:10.611Z,8.30
2023-03-17T12:08:06.279Z,9.10
2023-03-17T12:10:50.042Z,9.40
2023-03-17T12:13:44.155Z,7.20
2023-03-17T12:16:33.886Z,9.30
2023-03-17T12:19:26.456Z,8.70
2023-03-17T12:22:22.840Z,5.00
2023-03-17T12:25:19.665Z,7.10
2023-03-17T12:28:04.996Z,7.60
2023-03-17T12:31:20.555Z,6.90
2023-03-17T12:34:07.169Z,7.10
2023-03-17T12:36:54.090Z,5.40
2023-03-17T12:39:41.307Z,8.70
2023-03-17T12:42:48.292Z,7.60
2023-03-17T12:45:39.792Z,8.30
2023-03-17T12:48:44.443Z,9.10
2023-03-17T12:51:51.388Z,4.90
2023-03-17T12:54:35.273Z,8.50
2023-03-17T12:57:22.133Z,5.60
2023-03-17T13:00:06.941Z,8.00
2023-03-17T13:02:41.574Z,7.60
2023-03-17T13:05:20.236Z,6.00
2023-03-17T13:07:58.518Z,5.80
2023-03-17T13:10:49.598Z,4.50
2023-03-17T13:13:39.788Z,7.50
2023-03-17T13:16:35.200Z,4.90
2023-03-17T13:19:28.162Z,3.50
2023-03-17T13:22:03.844Z,8.80
2023-03-17T13:24:52.468Z,8.00
2023-03-17T13:27:37.772Z,9.00
2023-03-17T13:30:28.336Z,7.10
2023-03-17T13:33:15.751Z,3.90
2023-03-17T13:36:25.024Z,9.60
2023-03-17T13:39:19.708Z,6.60
2023-03-17T13:42:17.949Z,8.00
2023-03-17T13:45:13.961Z,6.90
2023-03-17T13:47:47.837Z,4.00
2023-03-17T13:50:33.293Z,3.50
2023-03-17T13:53:12.362Z,9.80
2023-03-17T13:56:06.179Z,4.00
2023-03-17T13:59:08.424Z,6.80
2023-03-17T14:01:58.398Z,10.60
2023-03-17T14:05:05.872Z,8.50
2023-03-17T14:07:59.279Z,3.40
2023-03-17T14:10:35.124Z,6.60
2023-03-17T14:13:25.489Z,7.60
2023-03-17T14:16:07.787Z,4.40
2023-03-17T14:21:32.117Z,4.40
2023-03-17T14:24:24.102Z,6.70
2023-03-17T14:27:12.385Z,8.30
2023-03-17T14:29:48.497Z,6.30
2023-03-17T14:32:29.403Z,3.10
2023-03-17T14:35:08.036Z,7.00
2023-03-17T14:37:42.030Z,5.40
2023-03-17T14:40:30.546Z,3.90
2023-03-17T14:43:03.849Z,10.70
2023-03-17T14:45:55.837Z,6.50
2023-03-17T14:48:37.006Z,5.00
2023-03-17T14:54:05.999Z,7.00
2023-03-17T14:56:42.851Z,4.80
2023-03-17T14:59:21.002Z,3.50
2023-03-17T15:02:00.542Z,3.80
2023-03-17T15:04:36.578Z,7.50
2023-03-17T15:07:29.332Z,5.80
2023-03-17T15:10:07.257Z,4.40
2023-03-17T15:12:41.151Z,6.30
2023-03-17T15:15:31.151Z,5.50
2023-03-17T15:18:17.532Z,8.00
2023-03-17T15:20:50.745Z,4.50
2023-03-17T15:23:31.857Z,6.70
2023-03-17T15:26:10.692Z,7.00
2023-03-17T15:28:44.118Z,6.40
2023-03-17T15:31:17.886Z,6.10
2023-03-17T15:33:51.053Z,5.80
2023-03-17T15:36:32.238Z,6.50
2023-03-17T15:39:08.815Z,5.90
2023-03-17T15:41:42.024Z,4.80
2023-03-17T15:44:15.207Z,7.50
2023-03-17T15:46:48.852Z,9.80
2023-03-17T15:49:27.092Z,4.50
2023-03-17T15:52:00.411Z,6.80
2023-03-17T15:54:34.040Z,7.90
2023-03-17T15:57:07.348Z,4.80
2023-03-17T15:59:40.846Z,6.60
2023-03-17T16:02:33.280Z,7.10
2023-03-17T16:05:20.541Z,7.50
2023-03-17T16:07:55.132Z,6.90
2023-03-17T16:10:33.840Z,5.00
2023-03-17T16:13:07.630Z,8.30
2023-03-17T16:15:47.993Z,12.00
2023-03-17T16:18:25.026Z,11.80
2023-03-17T16:20:58.530Z,14.50
2023-03-17T16:23:36.857Z,17.80
2023-03-17T16:26:16.203Z,13.20
2023-03-17T16:28:52.030Z,13.00
2023-03-17T16:31:32.767Z,12.70
2023-03-17T16:34:12.244Z,10.30
2023-03-17T16:36:46.842Z,10.60
2023-03-17T16:39:24.199Z,9.70
2023-03-17T16:41:58.019Z,11.40
2023-03-17T16:44:31.665Z,11.80
2023-03-17T16:47:05.214Z,12.40
2023-03-17T16:49:38.495Z,12.00
2023-03-17T16:52:12.663Z,12.00
2023-03-17T16:54:45.950Z,13.30
2023-03-17T16:57:19.350Z,11.90
2023-03-17T16:59:52.437Z,12.90
2023-03-17T17:02:25.337Z,11.80
2023-03-17T17:04:58.437Z,14.30
2023-03-17T17:07:32.605Z,13.40
2023-03-17T17:10:06.201Z,12.40
2023-03-17T17:12:39.167Z,14.60
2023-03-17T17:15:14.533Z,15.40
2023-03-17T17:17:53.880Z,11.30
2023-03-17T17:20:45.383Z,13.10
2023-03-17T17:23:21.515Z,11.50
2023-03-17T17:25:56.610Z,13.50
2023-03-17T17:28:29.867Z,12.30
2023-03-17T17:31:03.257Z,15.50
2023-03-17T17:33:36.376Z,12.00
2023-03-17T17:36:14.892Z,12.00
2023-03-17T17:38:48.031Z,15.50
2023-03-17T17:41:23.306Z,16.30
2023-03-17T17:43:56.694Z,16.20
2023-03-17T17:46:30.301Z,11.60
2023-03-17T17:49:03.755Z,17.40
2023-03-17T17:51:36.758Z,13.10
2023-03-17T17:54:11.293Z,13.40
2023-03-17T17:56:47.455Z,17.20
2023-03-17T17:59:20.601Z,12.10
2023-03-17T18:01:53.770Z,12.20
2023-03-17T18:04:26.841Z,14.70
2023-03-17T18:06:59.990Z,11.90
2023-03-17T18:09:33.222Z,11.30
2023-03-17T18:12:06.813Z,10.20
2023-03-17T18:14:39.783Z,11.50
2023-03-17T18:17:12.751Z,10.10
2023-03-17T18:19:45.858Z,13.00
2023-03-17T18:22:18.838Z,9.50
2023-03-17T18:24:51.843Z,12.00
2023-03-17T18:27:24.745Z,11.30
2023-03-17T18:29:58.734Z,10.10
2023-03-17T18:32:32.047Z,9.70
2023-03-17T18:35:08.624Z,13.20
2023-03-17T18:37:41.972Z,11.70
2023-03-17T18:40:18.612Z,12.90
2023-03-17T18:42:52.486Z,19.80
2023-03-17T18:45:25.671Z,19.60
2023-03-17T18:47:59.038Z,15.20
2023-03-17T18:50:32.304Z,17.10
2023-03-17T18:53:05.775Z,18.80
2023-03-17T18:55:38.966Z,16.30
2023-03-17T18:58:12.130Z,23.20
2023-03-17T19:00:45.386Z,25.90
2023-03-17T19:03:19.159Z,27.90
2023-03-17T19:05:52.339Z,25.60
2023-03-17T19:08:25.854Z,24.10
2023-03-17T19:10:58.947Z,29.60
2023-03-17T19:13:31.807Z,25.00
2023-03-17T19:16:05.476Z,24.20
2023-03-17T19:18:42.028Z,31.60
2023-03-17T19:21:16.040Z,32.40
2023-03-17T19:23:49.273Z,39.10
2023-03-17T19:26:23.650Z,44.50
2023-03-17T19:28:57.334Z,43.40
2023-03-17T19:31:30.610Z,35.60
2023-03-17T19:34:03.695Z,32.40
2023-03-17T19:36:39.071Z,33.50
2023-03-17T19:39:13.352Z,28.00
2023-03-17T19:41:48.950Z,25.60
2023-03-17T19:44:22.380Z,28.90
2023-03-17T19:46:55.257Z,30.00
2023-03-17T19:49:28.450Z,26.70
2023-03-17T19:52:01.801Z,29.90
2023-03-17T19:54:34.714Z,31.70
2023-03-17T19:57:08.111Z,28.40
2023-03-17T19:59:41.463Z,27.80
2023-03-17T20:02:18.403Z,31.70
2023-03-17T20:04:51.982Z,25.50
2023-03-17T20:07:25.188Z,25.60
2023-03-17T20:09:58.152Z,29.00
2023-03-17T20:12:33.343Z,27.10
2023-03-17T20:15:08.026Z,21.80
2023-03-17T20:17:41.507Z,24.60
2023-03-17T20:20:15.079Z,30.80
2023-03-17T20:22:48.084Z,29.10
2023-03-17T20:25:21.021Z,31.30
2023-03-17T20:27:54.291Z,29.40
2023-03-17T20:30:27.380Z,23.80
2023-03-17T20:33:00.536Z,30.90
2023-03-17T20:35:33.715Z,31.50
2023-03-17T20:38:06.376Z,25.70
2023-03-17T20:40:39.822Z,24.20
2023-03-17T20:43:12.716Z,21.80
2023-03-17T20:45:46.199Z,23.40
2023-03-17T20:48:19.540Z,20.40
2023-03-17T20:50:53.328Z,24.90
2023-03-17T20:53:26.290Z,36.90
2023-03-17T20:55:59.552Z,37.20
2023-03-17T20:58:32.571Z,43.90
2023-03-17T21:01:05.859Z,41.70
2023-03-17T21:03:39.436Z,32.60
2023-03-17T21:06:12.813Z,74.30
2023-03-17T21:08:46.789Z,94.30
2023-03-17T21:11:23.669Z,48.60
2023-03-17T21:13:57.351Z,29.90
2023-03-17T21:16:31.038Z,25.60
2023-03-17T21:19:07.954Z,21.60
2023-03-17T21:21:42.627Z,22.00
2023-03-17T21:24:33.112Z,21.90
2023-03-17T21:27:08.259Z,20.30
2023-03-17T21:29:41.881Z,17.10
2023-03-17T21:32:15.125Z,24.70
2023-03-17T21:34:48.604Z,23.50
2023-03-17T21:37:22.049Z,22.40
2023-03-17T21:39:54.976Z,20.50
2023-03-17T21:42:28.283Z,18.80
2023-03-17T21:45:00.828Z,36.50
2023-03-17T21:47:33.574Z,31.10
2023-03-17T21:50:10.241Z,31.00
2023-03-17T21:52:44.286Z,28.40
2023-03-17T21:55:17.546Z,27.00
2023-03-17T21:57:50.949Z,23.50
2023-03-17T22:00:25.718Z,30.50
2023-03-17T22:03:01.456Z,19.50
2023-03-17T22:05:34.839Z,15.50
2023-03-17T22:08:08.021Z,12.80
2023-03-17T22:10:42.212Z,9.00
2023-03-17T22:13:15.062Z,15.80
2023-03-17T22:15:48.086Z,16.90
2023-03-17T22:18:21.209Z,15.40
2023-03-17T22:20:58.286Z,17.30
2023-03-17T22:23:31.338Z,23.40
2023-03-17T22:26:04.241Z,18.60
2023-03-17T22:28:38.378Z,20.30
2023-03-17T22:31:28.173Z,19.00
2023-03-17T22:34:02.660Z,21.30
2023-03-17T22:36:37.314Z,20.30
2023-03-17T22:39:11.277Z,21.00
2023-03-17T22:41:44.607Z,18.90
2023-03-17T22:44:17.597Z,21.50
2023-03-17T22:46:50.787Z,18.50
2023-03-17T22:49:24.772Z,19.30
2023-03-17T22:51:57.818Z,19.80
2023-03-17T22:54:30.819Z,19.40
2023-03-17T22:57:05.625Z,15.60
2023-03-17T22:59:38.469Z,18.70
2023-03-17T23:02:11.923Z,16.80
2023-03-17T23:04:45.989Z,21.10
2023-03-17T23:07:19.014Z,29.40
2023-03-17T23:09:52.003Z,34.30
2023-03-17T23:12:25.066Z,40.40
2023-03-17T23:14:58.481Z,45.80
2023-03-17T23:17:31.275Z,35.10
2023-03-17T23:20:06.821Z,29.20
2023-03-17T23:22:40.008Z,24.80
2023-03-17T23:25:14.166Z,25.50
2023-03-17T23:27:47.467Z,21.30
2023-03-17T23:30:21.620Z,21.60
2023-03-17T23:32:54.246Z,16.30
2023-03-17T23:35:27.412Z,19.40
2023-03-17T23:38:00.364Z,21.70
2023-03-17T23:40:34.767Z,23.60
2023-03-17T23:43:07.609Z,24.10
2023-03-17T23:45:41.574Z,20.70
2023-03-17T23:48:14.326Z,19.40
2023-03-17T23:50:47.278Z,19.70
2023-03-17T23:53:20.595Z,19.40
2023-03-17T23:55:55.024Z,20.10
2023-03-17T23:58:28.056Z,20.60
